Time;durP1;ratioP1;P1;durP2;ratioP2;P2;SDS_P1;SDS_P2;PMS_P1;PMS_P2;Temp;Humidity;BMP_temperature;BMP_pressure;BME280_temperature;BME280_humidity;BME280_pressure;Samples;Min_cycle;Max_cycle;Signal;HPM_P1;HPM_P2
2023/10/13 00:02:27;;;;;;;;;;;;;;;-144.32;100.00;68061.97;10221862;28;19942;-81
2023/10/13 00:07:33;;;;;;;;;;;;;;;-144.32;100.00;68061.97;10222370;28;19942;-79
2023/10/13 00:12:37;;;;;;;;;;;;;;;-144.32;100.00;68061.97;10214687;28;20022;-83
2023/10/13 00:17:41;;;;;;;;;;;;;;;-144.32;100.00;68061.97;10219653;28;20629;-79
2023/10/13 00:22:56;;;;;;;;;;;;;;;-144.32;100.00;68061.97;10229398;28;20494;-81
2023/10/13 00:27:57;;;;;;;;;;;;;;;-144.32;100.00;68061.97;10213937;28;19937;-86
2023/10/13 00:33:00;;;;;;;;;;;;;;;-144.32;100.00;68061.97;10214892;28;19930;-82
2023/10/13 00:38:17;;;;;;;;;;;;;;;-144.32;100.00;68061.97;10223949;28;19937;-80
2023/10/13 00:48:32;;;;;;;;;;;;;;;-144.32;100.00;68061.97;10225824;28;19951;-81
2023/10/13 00:53:34;;;;;;;;;;;;;;;-144.32;100.00;68061.97;10219466;28;19926;-82
2023/10/13 00:58:35;;;;;;;;;;;;;;;-144.32;100.00;68061.97;10222601;28;20363;-82
2023/10/13 01:03:35;;;;;;;;;;;;;;;-144.32;100.00;68061.97;10217107;28;19933;-82
2023/10/13 01:08:37;;;;;;;;;;;;;;;-144.32;100.00;68061.97;10226751;28;19926;-81
2023/10/13 01:13:41;;;;;;;;;;;;;;;-144.32;100.00;68061.97;10231030;28;20819;-81
2023/10/13 01:18:47;;;;;;;;;;;;;;;-144.32;100.00;68061.97;10232261;28;19926;-82
2023/10/13 01:23:48;;;;;;;;;;;;;;;-144.32;100.00;68061.97;10230977;28;20041;-81
2023/10/13 01:28:50;;;;;;;;;;;;;;;-144.32;100.00;68061.97;10230852;28;19927;-81
2023/10/13 01:33:53;;;;;;;;;;;;;;;-144.32;100.00;68061.97;10224148;28;19949;-81
2023/10/13 01:38:54;;;;;;;;;;;;;;;-144.32;100.00;68061.97;10229976;28;20869;-80
2023/10/13 01:43:57;;;;;;;;;;;;;;;-144.32;100.00;68061.97;10221348;28;19931;-82
2023/10/13 01:48:57;;;;;;;;;;;;;;;-144.32;100.00;68061.97;10222424;28;19926;-81
2023/10/13 01:53:57;;;;;;;;;;;;;;;-144.32;100.00;68061.97;10202822;28;19945;-81
2023/10/13 01:58:58;;;;;;;;;;;;;;;-144.32;100.00;68061.97;10203079;28;19934;-84
2023/10/13 02:04:03;;;;;;;;;;;;;;;-144.32;100.00;68061.97;10228987;28;19931;-79
2023/10/13 02:09:12;;;;;;;;;;;;;;;-144.32;100.00;68061.97;10235610;28;19945;-79
2023/10/13 02:14:16;;;;;;;;;;;;;;;-144.32;100.00;68061.97;10252029;28;19922;-83
2023/10/13 02:19:19;;;;;;;;;;;;;;;-144.32;100.00;68061.97;10242475;28;19937;-83
2023/10/13 02:24:29;;;;;;;;;;;;;;;-144.32;100.00;68061.97;10268523;28;19989;-85
2023/10/13 02:29:30;;;;;;;;;;;;;;;-144.32;100.00;68061.97;10263725;28;19940;-85
2023/10/13 02:34:31;;;;;;;;;;;;;;;-144.32;100.00;68061.97;10289990;28;19956;-82
2023/10/13 02:39:36;;;;;;;;;;;;;;;-144.32;100.00;68061.97;10287254;28;20290;-82
2023/10/13 02:44:40;;;;;;;;;;;;;;;-144.32;100.00;68061.97;10285361;28;19933;-82
2023/10/13 02:49:45;;;;;;;;;;;;;;;-144.32;100.00;68061.97;10267756;28;19922;-82
2023/10/13 02:54:50;;;;;;;;;;;;;;;-144.32;100.00;68061.97;10254340;28;20092;-84
2023/10/13 02:59:57;;;;;;;;;;;;;;;-144.32;100.00;68061.97;10276306;28;19926;-84
2023/10/13 03:05:09;;;;;;;;;;;;;;;-144.32;100.00;68061.97;10275493;28;19929;-82
2023/10/13 03:10:09;;;;;;;;;;;;;;;-144.32;100.00;68061.97;10280385;28;19929;-87
2023/10/13 03:15:17;;;;;;;;;;;;;;;-144.32;100.00;68061.97;10277620;28;19932;-86
2023/10/13 03:20:41;;;;;;;;;;;;;;;-144.32;100.00;68061.97;10271345;28;19929;-82
2023/10/13 03:25:49;;;;;;;;;;;;;;;-144.32;100.00;68061.97;10273926;28;19985;-81
2023/10/13 03:30:52;;;;;;;;;;;;;;;-144.32;100.00;68061.97;10257993;28;19926;-80
2023/10/13 03:36:05;;;;;;;;;;;;;;;-144.32;100.00;68061.97;10278822;28;19948;-82
2023/10/13 03:41:18;;;;;;;;;;;;;;;-144.32;100.00;68061.97;10278269;28;20446;-83
2023/10/13 03:46:21;;;;;;;;;;;;;;;-144.32;100.00;68061.97;10305239;28;19981;-82
2023/10/13 03:51:23;;;;;;;;;;;;;;;-144.32;100.00;68061.97;10296675;28;19941;-81
2023/10/13 03:56:44;;;;;;;;;;;;;;;-144.32;100.00;68061.97;10288469;28;20631;-84
2023/10/13 04:07:01;;;;;;;;;;;;;;;-144.32;100.00;68061.97;10227821;28;19926;-84
2023/10/13 04:17:14;;;;;;;;;;;;;;;-144.32;100.00;68061.97;10219721;28;19933;-81
2023/10/13 04:22:20;;;;;;;;;;;;;;;-144.32;100.00;68061.97;10223740;28;19926;-84
2023/10/13 04:27:54;;;;;;;;;;;;;;;-144.32;100.00;68061.97;10223755;28;19926;-81
2023/10/13 04:33:35;;;;;;;;;;;;;;;-144.32;100.00;68061.97;10221025;28;19933;-81
2023/10/13 04:38:20;;;;;;;;;;;;;;;-144.32;100.00;68061.97;10227381;28;21157;-83
2023/10/13 04:43:33;;;;;;;;;;;;;;;-144.32;100.00;68061.97;10244570;28;19977;-83
2023/10/13 04:48:38;;;;;;;;;;;;;;;-144.32;100.00;68061.97;10275401;28;19925;-81
2023/10/13 05:05:11;;;;;;;;;;;;;;;-144.32;100.00;68061.97;10221015;28;19933;-81
2023/10/13 05:47:47;;;;;;;;;;;;;;;-144.32;100.00;68061.97;10276144;28;19957;-83
2023/10/13 06:29:55;;;;;;;;;;;;;;;-144.32;100.00;68061.97;10287802;28;20347;-73
2023/10/13 06:35:04;;;;;;;;;;;;;;;-144.32;100.00;68061.97;10276841;28;19926;-72
2023/10/13 06:45:21;;;;;;;;;;;;;;;-144.32;100.00;68061.97;10266086;28;20373;-72
2023/10/13 06:50:25;;;;;;;;;;;;;;;-144.32;100.00;68061.97;10254320;28;20046;-73
2023/10/13 06:55:27;;;;;;;;;;;;;;;-144.32;100.00;68061.97;10258045;28;20756;-72
2023/10/13 07:00:34;;;;;;;;;;;;;;;-144.32;100.00;68061.97;10267930;28;20036;-72
2023/10/13 07:05:37;;;;;;;;;;;;;;;-144.32;100.00;68061.97;10246220;28;19933;-76
2023/10/13 07:16:05;;;;;;;;;;;;;;;-144.32;100.00;68061.97;10266013;28;20753;-74
2023/10/13 07:21:10;;;;;;;;;;;;;;;-144.32;100.00;68061.97;10267483;28;19926;-72
2023/10/13 07:26:12;;;;;;;;;;;;;;;-144.32;100.00;68061.97;10265897;28;20001;-72
2023/10/13 07:31:13;;;;;;;;;;;;;;;-144.32;100.00;68061.97;10270284;28;20021;-73
2023/10/13 07:36:18;;;;;;;;;;;;;;;-144.32;100.00;68061.97;10250169;28;19933;-73
2023/10/13 07:41:21;;;;;;;;;;;;;;;-144.32;100.00;68061.97;10265622;28;20294;-71
2023/10/13 07:46:29;;;;;;;;;;;;;;;-144.32;100.00;68061.97;10261933;28;20302;-76
2023/10/13 07:51:32;;;;;;;;;;;;;;;-144.32;100.00;68061.97;10273623;28;20021;-72
2023/10/13 07:56:38;;;;;;;;;;;;;;;-144.32;100.00;68061.97;10267946;28;20334;-76
2023/10/13 08:01:42;;;;;;;;;;;;;;;-144.32;100.00;68061.97;10260790;28;20490;-71
2023/10/13 08:06:44;;;;;;;;;;;;;;;-144.32;100.00;68061.97;10264100;28;22920;-87
2023/10/13 08:11:45;;;;;;;;;;;;;;;-144.32;100.00;68061.97;10261144;28;19925;-88
2023/10/13 08:16:52;;;;;;;;;;;;;;;-144.32;100.00;68061.97;10246025;28;20009;-85
2023/10/13 08:22:14;;;;;;;;;;;;;;;-144.32;100.00;68061.97;10267919;28;19929;-86
2023/10/13 08:27:35;;;;;;;;;;;;;;;-144.32;100.00;68061.97;10254653;28;19926;-90
2023/10/13 08:38:04;;;;;;;;;;;;;;;-144.32;100.00;68061.97;10327779;28;19925;-90
2023/10/13 08:43:11;;;;;;;;;;;;;;;-144.32;100.00;68061.97;10336566;28;19906;-90
2023/10/13 08:48:12;;;;;;;;;;;;;;;-144.32;100.00;68061.97;10333214;28;19981;-89
2023/10/13 09:03:55;;;;;;;;;;;;;;;-144.32;100.00;68061.97;10292953;28;19937;-86
2023/10/13 09:09:06;;;;;;;;;;;;;;;-144.32;100.00;68061.97;10278807;28;20267;-86
2023/10/13 09:14:20;;;;;;;;;;;;;;;-144.32;100.00;68061.97;10329020;28;19910;-88
2023/10/13 09:19:21;;;;;;;;;;;;;;;-144.32;100.00;68061.97;10320903;28;19928;-87
2023/10/13 09:30:18;;;;;;;;;;;;;;;-144.32;100.00;68061.97;10450308;23;19922;-87
2023/10/13 09:35:22;;;;;;;;;;;;;;;-144.32;100.00;68061.97;10312181;28;19925;-84
2023/10/13 09:46:01;;;;;;;;;;;;;;;-144.32;100.00;68061.97;10291331;28;19922;-84
2023/10/13 09:51:08;;;;;;;;;;;;;;;-144.32;100.00;68061.97;10277341;28;19926;-83
2023/10/13 09:56:23;;;;;;;;;;;;;;;-144.32;100.00;68061.97;10270346;28;19933;-83
2023/10/13 10:01:32;;;;;;;;;;;;;;;-144.32;100.00;68061.97;10288910;28;20024;-86
2023/10/13 10:06:44;;;;;;;;;;;;;;;-144.32;100.00;68061.97;10265675;28;19934;-84
2023/10/13 10:12:04;;;;;;;;;;;;;;;-144.32;100.00;68061.97;10287815;28;19937;-85
2023/10/13 10:17:07;;;;;;;;;;;;;;;-144.32;100.00;68061.97;10286000;28;19937;-84
2023/10/13 10:22:16;;;;;;;;;;;;;;;-144.32;100.00;68061.97;10270579;28;20402;-82
2023/10/13 10:27:33;;;;;;;;;;;;;;;-144.32;100.00;68061.97;10293405;28;19976;-83
2023/10/13 10:32:34;;;;;;;;;;;;;;;-144.32;100.00;68061.97;10273766;28;19926;-84
2023/10/13 10:37:46;;;;;;;;;;;;;;;-144.32;100.00;68061.97;10271500;28;19923;-84
2023/10/13 10:42:58;;;;;;;;;;;;;;;-144.32;100.00;68061.97;10253613;28;20547;-83
2023/10/13 10:48:17;;;;;;;;;;;;;;;-144.32;100.00;68061.97;10212293;28;20016;-81
2023/10/13 10:53:22;;;;;;;;;;;;;;;-144.32;100.00;68061.97;10280265;28;19925;-82
2023/10/13 10:58:29;;;;;;;;;;;;;;;-144.32;100.00;68061.97;10275986;28;19925;-83
2023/10/13 11:03:30;;;;;;;;;;;;;;;-144.32;100.00;68061.97;10283239;28;19925;-85
2023/10/13 11:08:31;;;;;;;;;;;;;;;-144.32;100.00;68061.97;10299655;28;19925;-82
2023/10/13 11:14:29;;;;;;;;;;;;;;;-144.32;100.00;68061.97;10312702;28;19929;-82
2023/10/13 11:19:05;;;;;;;;;;;;;;;-144.32;100.00;68061.97;10273032;28;19922;-84
2023/10/13 11:24:11;;;;;;;;;;;;;;;-144.32;100.00;68061.97;10303371;28;20017;-82
2023/10/13 11:29:52;;;;;;;;;;;;;;;-144.32;100.00;68061.97;10286168;28;19937;-81
2023/10/13 11:34:54;;;;;;;;;;;;;;;-144.32;100.00;68061.97;10265315;28;20305;-81
2023/10/13 11:39:55;;;;;;;;;;;;;;;-144.32;100.00;68061.97;10272019;28;19981;-82
2023/10/13 11:45:28;;;;;;;;;;;;;;;-144.32;100.00;68061.97;10260282;28;20012;-82
2023/10/13 11:50:32;;;;;;;;;;;;;;;-144.32;100.00;68061.97;10268335;28;19934;-80
2023/10/13 11:55:33;;;;;;;;;;;;;;;-144.32;100.00;68061.97;10279436;28;20017;-83
2023/10/13 12:01:01;;;;;;;;;;;;;;;-144.32;100.00;68061.97;10272990;28;19993;-84
2023/10/13 12:06:32;;;;;;;;;;;;;;;-144.32;100.00;68061.97;10288752;28;19993;-86
2023/10/13 12:11:38;;;;;;;;;;;;;;;-144.32;100.00;68061.97;10247934;28;19955;-86
2023/10/13 12:16:39;;;;;;;;;;;;;;;-144.32;100.00;68061.97;10268461;23;20005;-85
2023/10/13 12:21:40;;;;;;;;;;;;;;;-144.32;100.00;68061.97;10215591;28;19997;-77
2023/10/13 12:26:42;;;;;;;;;;;;;;;-144.32;100.00;68061.97;10214574;28;19973;-77
2023/10/13 12:31:50;;;;;;;;;;;;;;;-144.32;100.00;68061.97;10215589;28;19926;-80
2023/10/13 12:37:05;;;;;;;;;;;;;;;-144.32;100.00;68061.97;10198805;28;20032;-75
2023/10/13 12:52:45;;;;;;;;;;;;;;;-144.32;100.00;68061.97;10196305;29;19941;-79
2023/10/13 12:57:45;;;;;;;;;;;;;;;-144.32;100.00;68061.97;10181160;29;19927;-78
2023/10/13 13:02:50;;;;;;;;;;;;;;;-144.32;100.00;68061.97;10197466;28;19927;-87
2023/10/13 13:07:54;;;;;;;;;;;;;;;-144.32;100.00;68061.97;10218456;28;20547;-77
2023/10/13 13:12:56;;;;;;;;;;;;;;;-144.32;100.00;68061.97;10214305;29;19933;-81
2023/10/13 13:18:11;;;;;;;;;;;;;;;26.64;66.99;98026.53;10250532;28;19918;-92
2023/10/13 13:23:18;;;;;;;;;;;;;;;26.71;64.72;98020.06;10278893;28;20349;-85
2023/10/13 13:28:37;;;;;;;;;;;;;;;26.57;66.49;98012.97;10327010;28;19985;-87
2023/10/13 13:33:44;;;;;;;;;;;;;;;26.34;67.66;98003.75;10371589;28;19910;-86
2023/10/13 13:39:00;;;;;;;;;;;;;;;26.13;64.38;97985.03;10365084;28;20413;-87
2023/10/13 13:44:13;;;;;;;;;;;;;;;26.06;64.07;97972.28;10395202;23;19927;-90
2023/10/13 13:49:20;;;;;;;;;;;;;;;25.85;64.48;97977.53;10285209;28;19946;-91
2023/10/13 13:59:57;;;;;;;;;;;;;;;25.53;67.39;97963.38;10297110;28;19938;-88
2023/10/13 14:05:15;;;;;;;;;;;;;;;25.33;63.49;97964.66;10289257;28;20488;-88
2023/10/13 14:10:31;;;;;;;;;;;;;;;25.24;62.13;97951.53;10320551;28;19914;-92
2023/10/13 14:15:48;;;;;;;;;;;;;;;25.04;67.21;97939.84;10264825;28;19934;-92
2023/10/13 14:26:30;;;;;;;;;;;;;;;24.70;68.13;97919.00;10283139;28;19914;-90
2023/10/13 14:32:16;;;;;;;;;;;;;;;24.59;69.47;97910.22;10306957;28;20343;-85
2023/10/13 14:37:39;;;;;;;;;;;;;;;24.55;69.31;97902.06;10313287;23;20352;-84
2023/10/13 14:42:46;;;;;;;;;;;;;;;24.42;75.07;97895.72;10226484;28;20375;-85
2023/10/13 14:47:49;;;;;;;;;;;;;;;24.19;72.53;97888.31;10221606;28;19930;-84
2023/10/13 14:52:51;;;;;;;;;;;;;;;24.13;73.63;97879.03;10244861;28;20146;-84
2023/10/13 14:57:54;;;;;;;;;;;;;;;24.13;72.45;97874.31;10243012;28;20393;-82
2023/10/13 15:03:01;;;;;;;;;;;;;;;24.11;73.23;97871.22;10250704;28;19956;-83
2023/10/13 15:08:03;;;;;;;;;;;;;;;23.99;73.79;97869.13;10243101;28;19929;-83
2023/10/13 15:13:05;;;;;;;;;;;;;;;23.94;70.80;97864.13;10239148;28;20009;-82
2023/10/13 15:18:06;;;;;;;;;;;;;;;23.83;73.15;97856.13;10238844;28;19977;-84
2023/10/13 15:23:06;;;;;;;;;;;;;;;23.74;73.26;97860.59;10246224;28;19926;-83
2023/10/13 15:28:09;;;;;;;;;;;;;;;23.72;72.06;97852.81;10233470;28;19926;-83
2023/10/13 15:33:11;;;;;;;;;;;;;;;23.71;70.62;97855.97;10246849;28;19930;-87
2023/10/13 15:38:12;;;;;;;;;;;;;;;23.62;72.68;97842.06;10168021;29;19927;-82
2023/10/13 15:43:13;;;;;;;;;;;;;;;23.44;75.04;97834.13;10174570;29;19923;-85
2023/10/13 15:48:22;;;;;;;;;;;;;;;23.39;76.19;97840.09;10168607;29;19928;-85
2023/10/13 15:53:25;;;;;;;;;;;;;;;23.29;76.13;97830.88;10194270;29;19940;-86
2023/10/13 15:58:26;;;;;;;;;;;;;;;23.35;77.33;97825.69;10223349;28;19947;-83
2023/10/13 16:03:27;;;;;;;;;;;;;;;23.31;78.59;97825.75;10192195;29;19951;-85
2023/10/13 16:08:43;;;;;;;;;;;;;;;23.14;77.58;97821.38;10206096;29;19911;-83
2023/10/13 16:13:50;;;;;;;;;;;;;;;23.01;79.34;97820.41;10191089;29;20025;-82
2023/10/13 16:18:51;;;;;;;;;;;;;;;22.93;79.71;97827.97;10217225;29;19974;-84
2023/10/13 16:23:52;;;;;;;;;;;;;;;22.74;79.50;97823.16;10201307;29;19922;-85
2023/10/13 16:28:53;;;;;;;;;;;;;;;22.69;80.26;97819.72;10218312;29;19999;-83
2023/10/13 16:34:02;;;;;;;;;;;;;;;22.45;83.72;97818.13;10226347;28;20494;-82
2023/10/13 16:39:03;;;;;;;;;;;;;;;22.23;82.41;97811.41;10231680;29;19926;-83
2023/10/13 16:44:11;;;;;;;;;;;;;;;22.04;84.74;97805.38;10240411;29;19923;-82
2023/10/13 16:49:12;;;;;;;;;;;;;;;22.02;83.56;97807.72;10261668;29;19923;-82
2023/10/13 16:54:12;;;;;;;;;;;;;;;21.90;87.58;97815.72;10262603;28;19923;-85
2023/10/13 16:59:14;;;;;;;;;;;;;;;21.84;88.36;97809.91;10261331;29;19925;-85
2023/10/13 17:04:18;;;;;;;;;;;;;;;21.55;90.46;97809.47;10272188;29;19929;-84
2023/10/13 17:09:19;;;;;;;;;;;;;;;21.44;93.45;97804.13;10252257;29;19923;-82
2023/10/13 17:14:22;;;;;;;;;;;;;;;21.16;98.82;97801.66;10225803;29;19926;-83
2023/10/13 17:19:24;;;;;;;;;;;;;;;20.91;100.00;97808.09;10227501;29;19994;-83
2023/10/13 17:24:26;;;;;;;;;;;;;;;20.58;100.00;97806.06;10235075;29;19933;-86
2023/10/13 17:29:28;;;;;;;;;;;;;;;20.33;100.00;97796.06;10253126;29;19922;-86
2023/10/13 17:34:30;;;;;;;;;;;;;;;20.00;100.00;97802.84;10232237;28;19950;-82
2023/10/13 17:39:32;;;;;;;;;;;;;;;19.79;100.00;97794.78;10192095;29;19970;-83
2023/10/13 17:44:32;;;;;;;;;;;;;;;19.82;100.00;97796.69;10214501;29;20021;-81
2023/10/13 17:49:33;;;;;;;;;;;;;;;19.93;100.00;97786.53;10199400;29;20339;-83
2023/10/13 17:54:34;;;;;;;;;;;;;;;20.02;100.00;97784.16;10223860;29;20001;-84
2023/10/13 17:59:37;;;;;;;;;;;;;;;20.00;100.00;97788.44;10219684;29;19918;-85
2023/10/13 18:04:38;;;;;;;;;;;;;;;19.93;100.00;97775.63;10217225;29;19926;-86
2023/10/13 18:09:42;;;;;;;;;;;;;;;19.94;100.00;97776.44;10219055;29;20372;-85
2023/10/13 18:14:45;;;;;;;;;;;;;;;19.85;100.00;97782.31;10205571;29;20029;-84
2023/10/13 18:19:45;;;;;;;;;;;;;;;19.70;100.00;97761.75;10245466;29;19940;-82
2023/10/13 18:24:57;;;;;;;;;;;;;;;19.63;100.00;97756.31;10239796;29;19933;-83
2023/10/13 18:29:58;;;;;;;;;;;;;;;19.60;100.00;97757.91;10220013;28;20009;-82
2023/10/13 18:35:00;;;;;;;;;;;;;;;19.53;100.00;97753.22;10166382;29;19927;-83
2023/10/13 18:40:06;;;;;;;;;;;;;;;19.41;100.00;97737.34;10167934;29;20382;-83
2023/10/13 18:45:11;;;;;;;;;;;;;;;19.36;100.00;97731.50;10169798;29;19932;-81
2023/10/13 18:50:23;;;;;;;;;;;;;;;19.30;100.00;97725.72;10211592;29;19978;-82
2023/10/13 18:55:25;;;;;;;;;;;;;;;19.33;100.00;97725.69;10240892;28;19922;-82
2023/10/13 19:00:26;;;;;;;;;;;;;;;19.38;100.00;97718.28;10184549;29;20328;-82
2023/10/13 19:05:26;;;;;;;;;;;;;;;19.43;100.00;97721.38;10202803;29;19922;-82
2023/10/13 19:10:26;;;;;;;;;;;;;;;19.46;99.75;97726.03;10208586;29;20440;-80
2023/10/13 19:15:28;;;;;;;;;;;;;;;19.41;100.00;97723.72;10183631;29;19923;-81
2023/10/13 19:20:34;;;;;;;;;;;;;;;19.38;100.00;97719.06;10215076;29;20436;-81
2023/10/13 19:25:37;;;;;;;;;;;;;;;19.14;100.00;97715.25;10226401;29;19929;-80
2023/10/13 19:30:43;;;;;;;;;;;;;;;19.22;100.00;97722.22;10232363;29;20017;-85
2023/10/13 19:35:43;;;;;;;;;;;;;;;19.14;100.00;97712.53;10244347;28;19926;-80
2023/10/13 19:40:44;;;;;;;;;;;;;;;19.01;100.00;97711.41;10256176;29;19930;-80
2023/10/13 19:45:48;;;;;;;;;;;;;;;18.93;100.00;97718.03;10242341;29;20077;-81
2023/10/13 19:50:55;;;;;;;;;;;;;;;18.82;100.00;97718.03;10234987;29;19933;-80
2023/10/13 19:55:57;;;;;;;;;;;;;;;18.70;100.00;97710.28;10182216;29;19972;-84
2023/10/13 20:01:05;;;;;;;;;;;;;;;18.61;100.00;97704.44;10219054;29;19966;-81
2023/10/13 20:06:07;;;;;;;;;;;;;;;18.54;100.00;97710.66;10220409;28;19978;-82
2023/10/13 20:11:12;;;;;;;;;;;;;;;18.50;100.00;97709.91;10202907;29;19923;-80
2023/10/13 20:16:19;;;;;;;;;;;;;;;18.46;100.00;97709.09;10256024;29;19972;-92
2023/10/13 20:21:24;;;;;;;;;;;;;;;18.43;100.00;97707.94;10242633;29;20295;-79
2023/10/13 20:26:29;;;;;;;;;;;;;;;18.48;100.00;97701.34;10251250;29;19986;-87
2023/10/13 20:31:35;;;;;;;;;;;;;;;18.36;100.00;97690.88;10260297;28;19930;-83
2023/10/13 20:36:36;;;;;;;;;;;;;;;18.31;100.00;97683.13;10254659;28;19930;-82
2023/10/13 20:41:37;;;;;;;;;;;;;;;18.26;100.00;97680.78;10255637;29;20009;-82
2023/10/13 20:46:38;;;;;;;;;;;;;;;18.25;100.00;97674.56;10241417;28;20450;-81
2023/10/13 20:51:42;;;;;;;;;;;;;;;18.22;100.00;97677.28;10225886;28;19922;-80
2023/10/13 20:56:44;;;;;;;;;;;;;;;18.22;100.00;97680.00;10257792;29;19973;-87
2023/10/13 21:01:44;;;;;;;;;;;;;;;18.20;100.00;97669.53;10261818;29;19930;-80
2023/10/13 21:06:44;;;;;;;;;;;;;;;18.26;100.00;97673.41;10225470;29;19961;-82
2023/10/13 21:11:45;;;;;;;;;;;;;;;18.31;100.00;97667.59;10219109;28;20086;-83
2023/10/13 21:16:46;;;;;;;;;;;;;;;18.29;100.00;97667.22;10234387;28;20471;-84
2023/10/13 21:21:46;;;;;;;;;;;;;;;18.23;100.00;97667.97;10224173;28;19957;-87
2023/10/13 21:26:49;;;;;;;;;;;;;;;18.20;100.00;97658.66;10225402;29;20021;-80
2023/10/13 21:31:49;;;;;;;;;;;;;;;18.22;100.00;97650.13;10218177;29;19922;-82
2023/10/13 21:36:51;;;;;;;;;;;;;;;18.26;100.00;97642.75;10227531;29;19930;-82
2023/10/13 21:41:53;;;;;;;;;;;;;;;18.30;100.00;97641.59;10233139;29;19940;-82
2023/10/13 21:46:56;;;;;;;;;;;;;;;18.36;100.00;97644.69;10227282;29;19931;-82
2023/10/13 21:51:56;;;;;;;;;;;;;;;18.33;100.00;97645.47;10226126;29;19926;-84
2023/10/13 21:56:57;;;;;;;;;;;;;;;18.31;100.00;97636.94;10185623;29;19927;-83
2023/10/13 22:01:58;;;;;;;;;;;;;;;18.33;100.00;97637.31;10169232;29;19930;-86
2023/10/13 22:06:59;;;;;;;;;;;;;;;18.35;100.00;97643.91;10164288;29;19923;-80
2023/10/13 22:11:59;;;;;;;;;;;;;;;18.28;100.00;97648.56;10161523;29;19938;-80
2023/10/13 22:17:04;;;;;;;;;;;;;;;18.23;100.00;97649.75;10146014;29;19955;-80
2023/10/13 22:22:04;;;;;;;;;;;;;;;18.01;100.00;97643.50;10140744;29;19923;-79
2023/10/13 22:27:06;;;;;;;;;;;;;;;17.95;100.00;97628.00;10160347;29;19927;-79
2023/10/13 22:32:06;;;;;;;;;;;;;;;17.85;100.00;97630.34;10155087;29;20030;-82
2023/10/13 22:37:11;;;;;;;;;;;;;;;17.77;100.00;97626.06;10156319;29;20818;-82
2023/10/13 22:42:12;;;;;;;;;;;;;;;17.70;100.00;97631.47;10155041;29;19942;-81
2023/10/13 22:47:13;;;;;;;;;;;;;;;17.67;100.00;97634.94;10157700;29;20295;-81
2023/10/13 22:52:14;;;;;;;;;;;;;;;17.62;100.00;97636.06;10167303;29;19935;-82
2023/10/13 22:57:16;;;;;;;;;;;;;;;17.55;100.00;97630.63;10160258;29;19934;-78
2023/10/13 23:02:20;;;;;;;;;;;;;;;17.52;100.00;97631.41;10164528;29;19943;-80
2023/10/13 23:07:22;;;;;;;;;;;;;;;17.52;100.00;97631.41;10164238;29;20020;-80
2023/10/13 23:12:25;;;;;;;;;;;;;;;17.54;100.00;97625.59;10164493;29;20318;-80
2023/10/13 23:17:29;;;;;;;;;;;;;;;17.56;100.00;97617.84;10167237;29;19931;-83
2023/10/13 23:22:30;;;;;;;;;;;;;;;17.52;100.00;97623.25;10170687;29;20680;-78
2023/10/13 23:27:30;;;;;;;;;;;;;;;17.53;100.00;97626.75;10162554;29;19934;-78
2023/10/13 23:32:31;;;;;;;;;;;;;;;17.51;100.00;97624.41;10162550;29;19923;-78
2023/10/13 23:37:32;;;;;;;;;;;;;;;17.65;100.00;97642.69;10165889;29;19995;-82
2023/10/13 23:42:54;;;;;;;;;;;;;;;17.68;100.00;97643.84;10145558;29;20015;-79
2023/10/13 23:47:58;;;;;;;;;;;;;;;17.54;100.00;97639.16;10161537;29;20018;-84
2023/10/13 23:52:59;;;;;;;;;;;;;;;17.35;100.00;97645.69;10159901;29;19942;-78
2023/10/13 23:58:04;;;;;;;;;;;;;;;17.24;100.00;97639.44;10162395;29;20727;-82
